Time;durP1;ratioP1;P1;durP2;ratioP2;P2;SDS_P1;SDS_P2;PMS_P1;PMS_P2;Temp;Humidity;BMP_temperature;BMP_pressure;BME280_temperature;BME280_humidity;BME280_pressure;Samples;Min_cycle;Max_cycle;Signal;HPM_P1;HPM_P2
2022/05/26 00:02:03;;;;;;;;;25.50;22.50;;;;;;;;5142133;27;10339;-80
2022/05/26 00:04:28;;;;;;;;;19.50;17.00;;;;;;;;5141496;27;14050;-81
2022/05/26 00:06:55;;;;;;;;;27.50;24.50;;;;;;;;5122412;27;13937;-80
2022/05/26 00:09:20;;;;;;;;;21.00;19.25;;;;;;;;5142362;27;13455;-81
2022/05/26 00:11:46;;;;;;;;;21.75;19.00;;;;;;;;5141975;27;12194;-81
2022/05/26 00:14:11;;;;;;;;;16.25;15.00;;;;;;;;5142129;27;9039;-81
2022/05/26 00:16:43;;;;;;;;;24.50;23.00;;;;;;;;5122775;27;11761;-81
2022/05/26 00:19:09;;;;;;;;;25.00;19.00;;;;;;;;5140747;27;13691;-81
2022/05/26 00:21:34;;;;;;;;;21.75;21.75;;;;;;;;5122849;27;13672;-81
2022/05/26 00:24:01;;;;;;;;;24.25;20.50;;;;;;;;5142072;27;13553;-81
2022/05/26 00:26:27;;;;;;;;;20.50;20.50;;;;;;;;5141431;27;11864;-81
2022/05/26 00:28:52;;;;;;;;;19.25;19.00;;;;;;;;5122480;27;10980;-81
2022/05/26 00:31:18;;;;;;;;;25.25;20.50;;;;;;;;5141127;27;13521;-82
2022/05/26 00:33:43;;;;;;;;;19.75;17.25;;;;;;;;5140861;27;13740;-82
2022/05/26 00:36:11;;;;;;;;;23.25;21.75;;;;;;;;5141328;27;13206;-82
2022/05/26 00:38:36;;;;;;;;;23.50;21.75;;;;;;;;5141394;27;12658;-82
2022/05/26 00:41:07;;;;;;;;;22.75;21.25;;;;;;;;5141771;27;10268;-80
2022/05/26 00:43:35;;;;;;;;;20.00;19.25;;;;;;;;5141452;27;10686;-80
2022/05/26 00:46:05;;;;;;;;;21.50;20.25;;;;;;;;5141201;27;11981;-80
2022/05/26 00:48:36;;;;;;;;;22.75;21.75;;;;;;;;5141744;27;12013;-81
2022/05/26 00:51:03;;;;;;;;;15.50;15.00;;;;;;;;5122735;27;12578;-80
2022/05/26 00:53:29;;;;;;;;;21.00;20.50;;;;;;;;5141083;27;14460;-80
2022/05/26 00:55:57;;;;;;;;;20.00;18.50;;;;;;;;5141295;27;13315;-80
2022/05/26 00:58:24;;;;;;;;;23.00;21.00;;;;;;;;5140426;27;11457;-81
2022/05/26 01:00:53;;;;;;;;;23.25;21.75;;;;;;;;5141353;27;12965;-80
2022/05/26 01:03:22;;;;;;;;;20.75;19.75;;;;;;;;5141005;27;10334;-80
2022/05/26 01:05:51;;;;;;;;;20.25;19.75;;;;;;;;5140754;27;10809;-78
2022/05/26 01:08:22;;;;;;;;;21.50;20.75;;;;;;;;5141404;27;10172;-80
2022/05/26 01:10:48;;;;;;;;;21.00;19.00;;;;;;;;5140978;27;11501;-80
2022/05/26 01:13:16;;;;;;;;;23.00;21.00;;;;;;;;5121510;27;14545;-81
2022/05/26 01:15:45;;;;;;;;;17.50;16.00;;;;;;;;5141282;27;10482;-81
2022/05/26 01:18:16;;;;;;;;;21.75;18.50;;;;;;;;5141117;27;13400;-81
2022/05/26 01:20:46;;;;;;;;;25.00;22.75;;;;;;;;5140736;27;13294;-81
2022/05/26 01:23:36;;;;;;;;;22.00;19.50;;;;;;;;5121580;27;14403;-80
2022/05/26 01:26:04;;;;;;;;;19.00;19.00;;;;;;;;5140382;27;12881;-80
2022/05/26 01:28:48;;;;;;;;;21.75;19.50;;;;;;;;5141168;27;13528;-80
2022/05/26 01:31:16;;;;;;;;;21.25;21.00;;;;;;;;5139717;27;13289;-80
2022/05/26 01:33:49;;;;;;;;;22.25;20.25;;;;;;;;5140957;27;12321;-80
2022/05/26 01:36:19;;;;;;;;;21.75;19.50;;;;;;;;5141092;27;11989;-81
2022/05/26 01:38:53;;;;;;;;;22.00;21.00;;;;;;;;5140717;27;12330;-81
2022/05/26 01:41:37;;;;;;;;;22.00;21.00;;;;;;;;5140421;27;12848;-81
2022/05/26 01:44:21;;;;;;;;;21.50;19.75;;;;;;;;5140670;27;10575;-82
2022/05/26 01:46:50;;;;;;;;;22.00;20.25;;;;;;;;5139874;27;12270;-80
2022/05/26 01:49:30;;;;;;;;;20.25;19.00;;;;;;;;5141041;27;11615;-81
2022/05/26 01:52:16;;;;;;;;;22.00;19.75;;;;;;;;5140562;27;12350;-81
2022/05/26 01:54:44;;;;;;;;;22.00;20.00;;;;;;;;5139741;27;11612;-81
2022/05/26 01:57:20;;;;;;;;;19.25;18.75;;;;;;;;5140728;27;10746;-81
2022/05/26 01:59:48;;;;;;;;;21.25;19.00;;;;;;;;5140410;27;13599;-81
2022/05/26 02:02:25;;;;;;;;;23.25;21.00;;;;;;;;5121441;27;13833;-81
2022/05/26 02:04:54;;;;;;;;;24.25;21.75;;;;;;;;5121855;27;11611;-80
2022/05/26 02:07:23;;;;;;;;;22.50;20.25;;;;;;;;5140335;27;11725;-81
2022/05/26 02:09:50;;;;;;;;;21.75;20.75;;;;;;;;5139985;27;10798;-82
2022/05/26 02:12:20;;;;;;;;;22.00;19.75;;;;;;;;5140237;27;10672;-82
2022/05/26 02:14:49;;;;;;;;;22.25;21.00;;;;;;;;5140105;27;11459;-82
2022/05/26 02:17:17;;;;;;;;;22.00;21.00;;;;;;;;5140116;27;12829;-82
2022/05/26 02:19:50;;;;;;;;;23.00;19.50;;;;;;;;5139393;27;10536;-81
2022/05/26 02:22:22;;;;;;;;;19.00;18.00;;;;;;;;5140131;27;12488;-81
2022/05/26 02:24:55;;;;;;;;;22.00;20.00;;;;;;;;5139441;27;13984;-83
2022/05/26 02:27:21;;;;;;;;;21.00;19.25;;;;;;;;5140217;27;10817;-83
2022/05/26 02:29:52;;;;;;;;;19.50;18.00;;;;;;;;5139393;27;12456;-82
2022/05/26 02:32:23;;;;;;;;;27.00;22.25;;;;;;;;5139299;27;14464;-79
2022/05/26 02:34:49;;;;;;;;;20.50;19.00;;;;;;;;5139679;27;14037;-79
2022/05/26 02:37:14;;;;;;;;;24.00;22.00;;;;;;;;5139743;27;12864;-79
2022/05/26 02:39:42;;;;;;;;;22.75;21.50;;;;;;;;5139817;27;12692;-80
2022/05/26 02:42:09;;;;;;;;;20.75;18.00;;;;;;;;5138965;27;11847;-81
2022/05/26 02:44:35;;;;;;;;;22.25;21.00;;;;;;;;5139704;27;12819;-80
2022/05/26 02:47:18;;;;;;;;;20.00;20.00;;;;;;;;5120830;27;13086;-80
2022/05/26 02:50:07;;;;;;;;;23.75;21.25;;;;;;;;5140033;27;11065;-82
2022/05/26 02:52:39;;;;;;;;;23.75;21.75;;;;;;;;5139793;27;11680;-81
2022/05/26 02:55:22;;;;;;;;;21.50;19.00;;;;;;;;5140106;27;10797;-81
2022/05/26 02:58:01;;;;;;;;;24.00;22.00;;;;;;;;5120354;27;14972;-81
2022/05/26 03:00:26;;;;;;;;;24.75;22.25;;;;;;;;5139468;27;12062;-81
2022/05/26 03:03:03;;;;;;;;;24.75;21.25;;;;;;;;5139264;27;10659;-81
2022/05/26 03:05:35;;;;;;;;;24.00;22.25;;;;;;;;5139893;27;9663;-81
2022/05/26 03:08:01;;;;;;;;;24.00;22.25;;;;;;;;5139859;27;10671;-81
2022/05/26 03:10:28;;;;;;;;;24.25;21.75;;;;;;;;5139101;27;11016;-82
2022/05/26 03:12:54;;;;;;;;;26.50;24.25;;;;;;;;5139373;27;10773;-82
2022/05/26 03:15:20;;;;;;;;;25.00;23.25;;;;;;;;5139567;27;11081;-82
2022/05/26 03:17:46;;;;;;;;;28.50;22.75;;;;;;;;5138816;27;10928;-82
2022/05/26 03:20:11;;;;;;;;;24.75;23.50;;;;;;;;5138623;27;11537;-82
2022/05/26 03:22:38;;;;;;;;;24.75;22.00;;;;;;;;5138811;27;11386;-81
2022/05/26 03:25:03;;;;;;;;;27.75;26.00;;;;;;;;5119754;27;9135;-81
2022/05/26 03:27:28;;;;;;;;;25.50;21.50;;;;;;;;5139477;27;11116;-82
2022/05/26 03:29:55;;;;;;;;;24.75;22.50;;;;;;;;5138950;27;11591;-82
2022/05/26 03:32:20;;;;;;;;;22.50;22.50;;;;;;;;5138677;27;11091;-86
2022/05/26 03:42:57;;;;;;;;;26.00;22.25;;;;;;;;5138056;27;12231;-80
2022/05/26 03:45:23;;;;;;;;;20.75;20.25;;;;;;;;5138406;27;12472;-80
2022/05/26 03:47:49;;;;;;;;;24.50;23.50;;;;;;;;5139263;27;10680;-80
2022/05/26 03:50:15;;;;;;;;;23.00;21.00;;;;;;;;5138796;27;12535;-80
2022/05/26 03:52:40;;;;;;;;;21.75;18.50;;;;;;;;5139149;27;11455;-82
2022/05/26 03:55:06;;;;;;;;;23.50;21.25;;;;;;;;5142117;27;12442;-82
2022/05/26 03:57:31;;;;;;;;;21.75;20.50;;;;;;;;5142104;27;12185;-82
2022/05/26 03:59:57;;;;;;;;;21.75;21.25;;;;;;;;5123115;27;14081;-81
2022/05/26 04:02:23;;;;;;;;;21.50;21.50;;;;;;;;5142842;27;8860;-80
2022/05/26 04:04:48;;;;;;;;;23.00;19.00;;;;;;;;5142283;27;11549;-80
2022/05/26 04:07:14;;;;;;;;;25.25;23.00;;;;;;;;5142211;27;12203;-80
2022/05/26 04:09:42;;;;;;;;;22.25;21.75;;;;;;;;5141953;27;11361;-80
2022/05/26 04:12:07;;;;;;;;;23.75;20.00;;;;;;;;5142329;27;12809;-81
2022/05/26 04:14:33;;;;;;;;;26.50;22.50;;;;;;;;5141948;27;11885;-81
2022/05/26 04:17:01;;;;;;;;;23.75;21.25;;;;;;;;5142438;27;12126;-81
2022/05/26 04:19:27;;;;;;;;;23.75;20.25;;;;;;;;5141136;27;11484;-81
2022/05/26 04:24:39;;;;;;;;;19.25;17.75;;;;;;;;5141578;27;12216;-81
2022/05/26 04:27:05;;;;;;;;;20.00;20.00;;;;;;;;5142002;27;10969;-82
2022/05/26 04:29:31;;;;;;;;;18.00;17.50;;;;;;;;5141187;27;14333;-81
2022/05/26 04:31:56;;;;;;;;;21.25;18.50;;;;;;;;5141022;27;14087;-80
2022/05/26 04:34:22;;;;;;;;;19.50;19.50;;;;;;;;5141781;27;12743;-81
2022/05/26 04:36:47;;;;;;;;;20.25;20.00;;;;;;;;5141842;27;12596;-81
2022/05/26 04:39:14;;;;;;;;;22.00;21.25;;;;;;;;5122941;27;15676;-80
2022/05/26 04:41:41;;;;;;;;;19.00;18.75;;;;;;;;5141622;27;13114;-80
2022/05/26 04:44:10;;;;;;;;;20.75;18.50;;;;;;;;5141956;27;12800;-80
2022/05/26 04:46:36;;;;;;;;;22.25;21.00;;;;;;;;5140674;27;13325;-79
2022/05/26 04:49:02;;;;;;;;;23.25;20.00;;;;;;;;5141502;27;12327;-81
2022/05/26 04:51:27;;;;;;;;;25.00;21.50;;;;;;;;5141872;27;10920;-77
2022/05/26 04:53:53;;;;;;;;;20.75;19.75;;;;;;;;5141602;27;11651;-77
2022/05/26 04:56:18;;;;;;;;;20.25;18.50;;;;;;;;5139405;27;12500;-78
2022/05/26 04:58:44;;;;;;;;;21.25;20.50;;;;;;;;5140432;27;12013;-77
2022/05/26 05:01:13;;;;;;;;;19.75;19.50;;;;;;;;5121141;27;11487;-76
2022/05/26 05:03:38;;;;;;;;;31.25;28.50;;;;;;;;5139818;27;11791;-78
2022/05/26 05:06:06;;;;;;;;;25.50;20.25;;;;;;;;5139151;27;11598;-81
2022/05/26 05:08:31;;;;;;;;;26.50;25.75;;;;;;;;5137992;27;13838;-74
2022/05/26 05:10:57;;;;;;;;;38.75;31.25;;;;;;;;5138144;27;11220;-74
2022/05/26 05:13:23;;;;;;;;;24.25;24.25;;;;;;;;5139080;27;12521;-74
2022/05/26 05:16:12;;;;;;;;;31.00;26.25;;;;;;;;5138804;27;11794;-74
2022/05/26 05:18:37;;;;;;;;;25.00;23.00;;;;;;;;5122063;27;12330;-75
2022/05/26 05:21:04;;;;;;;;;19.00;19.00;;;;;;;;5139296;27;13939;-74
2022/05/26 05:23:30;;;;;;;;;23.75;22.00;;;;;;;;5138933;27;10428;-74
2022/05/26 05:25:57;;;;;;;;;22.75;19.50;;;;;;;;5138308;27;12459;-75
2022/05/26 05:28:25;;;;;;;;;23.50;22.00;;;;;;;;5136205;27;12717;-74
2022/05/26 05:30:56;;;;;;;;;21.75;21.25;;;;;;;;5119069;27;13349;-73
2022/05/26 05:33:25;;;;;;;;;25.75;20.75;;;;;;;;5136558;27;11619;-74
2022/05/26 05:35:56;;;;;;;;;20.50;20.25;;;;;;;;5138454;27;11067;-72
2022/05/26 05:38:22;;;;;;;;;22.50;20.25;;;;;;;;5140507;27;12151;-73
2022/05/26 05:40:48;;;;;;;;;25.75;20.50;;;;;;;;5140332;27;10846;-73
2022/05/26 05:43:13;;;;;;;;;21.25;20.00;;;;;;;;5129867;27;11751;-75
2022/05/26 05:45:39;;;;;;;;;22.75;22.00;;;;;;;;5138261;27;11515;-75
2022/05/26 05:48:05;;;;;;;;;21.75;20.00;;;;;;;;5138975;27;9728;-72
2022/05/26 05:50:30;;;;;;;;;21.75;19.75;;;;;;;;5138602;27;8794;-77
2022/05/26 05:52:56;;;;;;;;;25.25;21.25;;;;;;;;5138461;27;11816;-78
2022/05/26 05:55:22;;;;;;;;;19.25;18.00;;;;;;;;5120622;27;13242;-77
2022/05/26 05:57:57;;;;;;;;;14.75;13.00;;;;;;;;5137726;27;13370;-80
2022/05/26 06:00:28;;;;;;;;;20.75;19.00;;;;;;;;5137146;27;11300;-80
2022/05/26 06:02:54;;;;;;;;;20.75;17.50;;;;;;;;5135831;27;10723;-83
2022/05/26 06:05:19;;;;;;;;;20.25;19.00;;;;;;;;5138153;27;10595;-83
2022/05/26 06:07:44;;;;;;;;;18.75;16.25;;;;;;;;5137629;27;10619;-77
2022/05/26 06:10:13;;;;;;;;;16.75;15.75;;;;;;;;5138333;27;13436;-78
2022/05/26 06:12:39;;;;;;;;;23.25;21.00;;;;;;;;5138927;27;10785;-78
2022/05/26 06:15:04;;;;;;;;;19.00;19.00;;;;;;;;5138991;27;13454;-80
2022/05/26 06:17:30;;;;;;;;;17.25;16.25;;;;;;;;5137785;27;12573;-77
2022/05/26 06:19:55;;;;;;;;;20.25;17.50;;;;;;;;5137622;27;11824;-76
2022/05/26 06:22:24;;;;;;;;;18.50;18.50;;;;;;;;5137784;27;13405;-79
2022/05/26 06:24:50;;;;;;;;;17.75;16.50;;;;;;;;5137666;27;12915;-80
2022/05/26 06:30:01;;;;;;;;;17.50;16.00;;;;;;;;5135832;27;11635;-82
2022/05/26 06:37:55;;;;;;;;;17.50;15.50;;;;;;;;5135270;27;12451;-80
2022/05/26 06:40:24;;;;;;;;;18.25;16.75;;;;;;;;5138359;27;11621;-76
2022/05/26 06:42:49;;;;;;;;;18.25;18.25;;;;;;;;5138218;27;12564;-77
2022/05/26 06:45:15;;;;;;;;;22.50;20.50;;;;;;;;5119643;27;10752;-77
2022/05/26 06:47:41;;;;;;;;;19.00;18.00;;;;;;;;5138412;27;13442;-76
2022/05/26 06:50:07;;;;;;;;;24.75;21.00;;;;;;;;5119248;27;13361;-77
2022/05/26 06:52:32;;;;;;;;;18.75;16.75;;;;;;;;5119229;27;14391;-79
2022/05/26 06:54:59;;;;;;;;;22.75;20.00;;;;;;;;5138472;27;14489;-78
2022/05/26 06:57:27;;;;;;;;;19.50;19.50;;;;;;;;5118800;27;13725;-78
2022/05/26 06:59:52;;;;;;;;;17.50;16.75;;;;;;;;5137785;27;14079;-79
2022/05/26 07:02:18;;;;;;;;;22.00;19.00;;;;;;;;5137970;27;11497;-79
2022/05/26 07:04:43;;;;;;;;;19.25;15.00;;;;;;;;5137800;27;14745;-79
2022/05/26 07:07:11;;;;;;;;;19.75;19.00;;;;;;;;5118543;27;12902;-78
2022/05/26 07:09:36;;;;;;;;;22.75;20.00;;;;;;;;5130597;27;10005;-77
2022/05/26 07:12:02;;;;;;;;;19.75;19.00;;;;;;;;5117413;28;10542;-78
2022/05/26 07:14:28;;;;;;;;;23.25;20.50;;;;;;;;5117302;28;10064;-77
2022/05/26 07:16:56;;;;;;;;;22.25;20.75;;;;;;;;5117321;28;13688;-79
2022/05/26 07:19:24;;;;;;;;;21.50;19.75;;;;;;;;5117722;28;11694;-80
2022/05/26 07:21:49;;;;;;;;;18.75;16.75;;;;;;;;5099957;28;11712;-79
2022/05/26 07:24:23;;;;;;;;;19.25;19.00;;;;;;;;5119282;28;12257;-79
2022/05/26 07:26:48;;;;;;;;;19.00;18.75;;;;;;;;5117559;27;11987;-75
2022/05/26 07:29:15;;;;;;;;;22.50;21.00;;;;;;;;5110531;28;10432;-76
2022/05/26 07:31:40;;;;;;;;;18.50;17.00;;;;;;;;5101734;28;13359;-76
2022/05/26 07:34:06;;;;;;;;;16.50;16.50;;;;;;;;5083146;28;10879;-75
2022/05/26 07:42:03;;;;;;;;;23.75;19.00;;;;;;;;5100938;28;10543;-74
2022/05/26 07:44:31;;;;;;;;;21.75;21.00;;;;;;;;5100500;28;12796;-76
2022/05/26 07:46:56;;;;;;;;;22.00;19.00;;;;;;;;5100791;28;9991;-73
2022/05/26 07:49:21;;;;;;;;;30.00;24.50;;;;;;;;5100821;28;11924;-74
2022/05/26 07:51:47;;;;;;;;;26.25;23.25;;;;;;;;5114294;28;13348;-74
2022/05/26 07:54:12;;;;;;;;;23.00;22.25;;;;;;;;5121426;28;13304;-73
2022/05/26 07:56:38;;;;;;;;;22.75;18.25;;;;;;;;5120885;28;10872;-72
2022/05/26 07:59:04;;;;;;;;;22.00;20.25;;;;;;;;5098906;28;12089;-74
2022/05/26 08:01:29;;;;;;;;;20.50;19.75;;;;;;;;5120736;28;11369;-74
2022/05/26 08:03:55;;;;;;;;;20.00;18.00;;;;;;;;5118527;28;11629;-75
2022/05/26 08:06:21;;;;;;;;;15.75;15.75;;;;;;;;5121138;28;10643;-75
2022/05/26 08:08:47;;;;;;;;;20.50;18.00;;;;;;;;5121300;28;13426;-75
2022/05/26 08:11:12;;;;;;;;;29.50;27.50;;;;;;;;5120927;28;13398;-76
2022/05/26 08:13:37;;;;;;;;;24.50;24.00;;;;;;;;5120837;28;12177;-75
2022/05/26 08:16:05;;;;;;;;;22.50;21.25;;;;;;;;5121117;28;11786;-75
2022/05/26 08:18:30;;;;;;;;;34.50;30.00;;;;;;;;5121139;28;11640;-75
2022/05/26 08:21:03;;;;;;;;;26.50;25.50;;;;;;;;5102482;28;15655;-76
2022/05/26 08:23:29;;;;;;;;;25.25;24.50;;;;;;;;5120497;28;13510;-76
2022/05/26 08:25:54;;;;;;;;;22.75;18.75;;;;;;;;5120286;28;10359;-76
2022/05/26 08:28:20;;;;;;;;;23.00;23.00;;;;;;;;5120265;28;12181;-76
2022/05/26 08:30:45;;;;;;;;;29.25;29.25;;;;;;;;5102921;28;14565;-76
2022/05/26 08:33:11;;;;;;;;;19.00;18.75;;;;;;;;5121139;28;11607;-74
2022/05/26 08:35:36;;;;;;;;;26.25;23.00;;;;;;;;5102464;28;13155;-76
2022/05/26 08:38:01;;;;;;;;;18.25;18.25;;;;;;;;5101866;27;15198;-77
2022/05/26 08:40:32;;;;;;;;;30.00;25.50;;;;;;;;5120403;28;13613;-76
2022/05/26 08:43:03;;;;;;;;;17.67;17.33;;;;;;;;5120213;28;13758;-75
2022/05/26 08:45:30;;;;;;;;;21.75;18.25;;;;;;;;5119875;28;13462;-76
2022/05/26 08:47:55;;;;;;;;;21.00;19.00;;;;;;;;5120583;28;12286;-76
2022/05/26 08:50:33;;;;;;;;;19.25;18.50;;;;;;;;5101531;28;12440;-75
2022/05/26 08:53:17;;;;;;;;;26.50;24.50;;;;;;;;5119714;28;13577;-76
2022/05/26 08:55:44;;;;;;;;;28.00;27.50;;;;;;;;5101188;28;12815;-77
2022/05/26 08:58:11;;;;;;;;;22.75;20.25;;;;;;;;5120715;28;11630;-76
2022/05/26 09:00:38;;;;;;;;;21.75;18.25;;;;;;;;5120452;28;11786;-76
2022/05/26 09:03:18;;;;;;;;;23.00;20.75;;;;;;;;5120086;28;9593;-75
2022/05/26 09:05:45;;;;;;;;;21.50;20.50;;;;;;;;5119867;28;11538;-74
2022/05/26 09:13:44;;;;;;;;;29.00;28.00;;;;;;;;5119955;28;11411;-77
2022/05/26 09:16:10;;;;;;;;;32.25;25.75;;;;;;;;5120081;28;13261;-75
2022/05/26 09:18:36;;;;;;;;;19.25;19.00;;;;;;;;5120611;28;13542;-76
2022/05/26 09:21:12;;;;;;;;;29.00;27.25;;;;;;;;5100956;28;15961;-75
2022/05/26 09:23:42;;;;;;;;;22.00;21.25;;;;;;;;5119603;28;14525;-75
2022/05/26 09:26:09;;;;;;;;;19.75;19.00;;;;;;;;5119774;28;9693;-76
2022/05/26 09:28:45;;;;;;;;;15.25;14.25;;;;;;;;5120097;28;13349;-76
2022/05/26 09:31:24;;;;;;;;;20.50;17.00;;;;;;;;5120131;28;11524;-76
2022/05/26 09:34:05;;;;;;;;;20.67;18.33;;;;;;;;5119446;28;13469;-76
2022/05/26 09:36:32;;;;;;;;;19.75;17.75;;;;;;;;5119903;28;10672;-76
2022/05/26 09:38:58;;;;;;;;;18.75;17.50;;;;;;;;5119775;28;12256;-76
2022/05/26 09:41:23;;;;;;;;;23.75;20.50;;;;;;;;5119441;28;11377;-75
2022/05/26 09:43:51;;;;;;;;;23.50;21.75;;;;;;;;5119065;28;10355;-76
2022/05/26 09:46:17;;;;;;;;;23.25;22.00;;;;;;;;5118987;28;10615;-74
2022/05/26 09:48:50;;;;;;;;;31.00;30.50;;;;;;;;5118852;28;10367;-77
2022/05/26 09:51:23;;;;;;;;;20.67;19.67;;;;;;;;5118742;27;13398;-76
2022/05/26 09:53:52;;;;;;;;;21.33;18.00;;;;;;;;5100719;28;13314;-77
2022/05/26 09:56:36;;;;;;;;;20.67;15.67;;;;;;;;5119398;28;12361;-76
2022/05/26 09:59:21;;;;;;;;;16.67;16.00;;;;;;;;5119495;28;11439;-76
2022/05/26 10:01:47;;;;;;;;;21.33;18.00;;;;;;;;5119243;28;13350;-75
2022/05/26 10:04:31;;;;;;;;;23.33;19.00;;;;;;;;5119623;28;12332;-75
2022/05/26 10:07:04;;;;;;;;;18.33;14.67;;;;;;;;5120574;28;9187;-75
2022/05/26 10:09:58;;;;;;;;;15.00;13.33;;;;;;;;5118869;28;13863;-77
2022/05/26 10:12:26;;;;;;;;;15.00;14.33;;;;;;;;5118961;28;11718;-80
2022/05/26 10:14:54;;;;;;;;;16.33;16.00;;;;;;;;5118912;28;9254;-78
2022/05/26 10:17:38;;;;;;;;;18.67;16.00;;;;;;;;5119171;28;11458;-78
2022/05/26 10:20:10;;;;;;;;;15.33;14.00;;;;;;;;5091082;28;9209;-76
2022/05/26 10:22:38;;;;;;;;;19.67;17.67;;;;;;;;5116266;28;10438;-75
2022/05/26 10:25:09;;;;;;;;;12.00;10.33;;;;;;;;5112232;28;11472;-76
2022/05/26 10:27:37;;;;;;;;;16.67;14.00;;;;;;;;5117782;28;11472;-75
2022/05/26 10:30:12;;;;;;;;;15.33;13.33;;;;;;;;5118945;28;11453;-75
2022/05/26 10:32:53;;;;;;;;;14.25;12.50;;;;;;;;5114522;28;11875;-75
2022/05/26 10:35:22;;;;;;;;;17.33;16.33;;;;;;;;5102578;28;12114;-74
2022/05/26 10:37:50;;;;;;;;;15.75;13.00;;;;;;;;5117980;28;11624;-74
2022/05/26 10:40:37;;;;;;;;;15.67;12.67;;;;;;;;5117451;28;11513;-74
2022/05/26 10:43:07;;;;;;;;;16.67;15.67;;;;;;;;5113178;28;11580;-75
2022/05/26 10:45:36;;;;;;;;;18.00;18.00;;;;;;;;5098596;28;10861;-73
2022/05/26 10:48:20;;;;;;;;;13.33;13.00;;;;;;;;5116397;28;11935;-75
2022/05/26 10:51:05;;;;;;;;;16.75;16.50;;;;;;;;5115649;28;10440;-75
2022/05/26 10:53:33;;;;;;;;;15.75;13.00;;;;;;;;5113755;28;11878;-75
2022/05/26 10:56:04;;;;;;;;;14.50;13.00;;;;;;;;5116722;28;12044;-76
2022/05/26 10:58:32;;;;;;;;;17.00;14.33;;;;;;;;5117658;28;9136;-74
2022/05/26 11:00:59;;;;;;;;;14.00;13.25;;;;;;;;5109237;28;12535;-75
2022/05/26 11:03:30;;;;;;;;;13.25;13.25;;;;;;;;5112081;28;8919;-75
2022/05/26 11:06:07;;;;;;;;;13.00;12.75;;;;;;;;5111618;28;9796;-76
2022/05/26 11:08:36;;;;;;;;;20.00;17.00;;;;;;;;5093861;28;11977;-76
2022/05/26 11:11:10;;;;;;;;;13.00;11.00;;;;;;;;5112298;28;14034;-75
2022/05/26 11:13:54;;;;;;;;;13.50;13.50;;;;;;;;5112606;28;10423;-74
2022/05/26 11:19:15;;;;;;;;;12.25;12.00;;;;;;;;5112197;28;11399;-75
2022/05/26 11:21:40;;;;;;;;;12.75;11.00;;;;;;;;5112362;28;9750;-76
2022/05/26 11:24:12;;;;;;;;;15.33;12.33;;;;;;;;5091347;28;8833;-75
2022/05/26 11:26:37;;;;;;;;;11.25;11.00;;;;;;;;5110585;28;12977;-74
2022/05/26 11:29:20;;;;;;;;;15.33;14.33;;;;;;;;5112756;28;11343;-75
2022/05/26 11:37:28;;;;;;;;;15.33;13.00;;;;;;;;5112464;28;11403;-75
2022/05/26 11:39:56;;;;;;;;;13.67;12.33;;;;;;;;5110727;28;11444;-75
2022/05/26 11:42:25;;;;;;;;;14.33;12.33;;;;;;;;5112654;28;11707;-75
2022/05/26 11:44:56;;;;;;;;;11.75;11.00;;;;;;;;5111829;28;9126;-75
2022/05/26 11:47:29;;;;;;;;;21.67;19.00;;;;;;;;5110267;28;11694;-75
2022/05/26 11:49:54;;;;;;;;;20.00;18.00;;;;;;;;5091306;28;14414;-75
2022/05/26 11:52:24;;;;;;;;;12.00;11.00;;;;;;;;5111403;28;10517;-75
2022/05/26 11:54:52;;;;;;;;;14.00;13.00;;;;;;;;5109817;28;10850;-75
2022/05/26 11:57:33;;;;;;;;;10.00;10.00;;;;;;;;5119820;28;8890;-75
2022/05/26 12:00:19;;;;;;;;;9.75;8.00;;;;;;;;5118937;28;8897;-76
2022/05/26 12:02:51;;;;;;;;;13.00;10.75;;;;;;;;5120026;28;23346;-76
2022/05/26 12:05:45;;;;;;;;;13.33;13.00;;;;;;;;5120622;28;23710;-75
2022/05/26 12:08:31;;;;;;;;;12.75;10.00;;;;;;;;5037908;28;10663;-74
2022/05/26 12:10:58;;;;;;;;;11.50;11.50;;;;;;;;5031539;28;10899;-75
2022/05/26 12:13:24;;;;;;;;;10.50;10.50;;;;;;;;5035194;28;12023;-74
2022/05/26 12:16:08;;;;;;;;;16.00;14.00;;;;;;;;5035385;28;8950;-74
2022/05/26 12:18:42;;;;;;;;;19.33;17.00;;;;;;;;5068078;28;11045;-75
2022/05/26 12:21:15;;;;;;;;;10.75;10.75;;;;;;;;5120151;28;10460;-74
2022/05/26 12:23:42;;;;;;;;;20.00;18.33;;;;;;;;5100000;28;13816;-76
2022/05/26 12:26:28;;;;;;;;;17.67;12.00;;;;;;;;5118639;28;12461;-74
2022/05/26 12:28:55;;;;;;;;;21.75;21.00;;;;;;;;5117532;28;14574;-75
2022/05/26 12:31:21;;;;;;;;;19.67;19.67;;;;;;;;5119038;28;12962;-74
2022/05/26 12:33:47;;;;;;;;;15.33;14.00;;;;;;;;5119680;28;14516;-74
2022/05/26 12:36:18;;;;;;;;;22.33;20.67;;;;;;;;5118860;28;11593;-74
2022/05/26 12:38:49;;;;;;;;;22.00;21.67;;;;;;;;5117783;28;13319;-74
2022/05/26 12:41:33;;;;;;;;;15.00;14.00;;;;;;;;5100972;28;12184;-74
2022/05/26 12:44:08;;;;;;;;;14.25;12.00;;;;;;;;5118952;28;13376;-74
2022/05/26 12:46:53;;;;;;;;;12.50;11.25;;;;;;;;5111676;28;10427;-73
2022/05/26 12:49:51;;;;;;;;;17.00;13.25;;;;;;;;5070823;28;11442;-74
2022/05/26 12:52:19;;;;;;;;;14.25;12.00;;;;;;;;5077088;28;10438;-74
2022/05/26 12:55:05;;;;;;;;;12.25;11.25;;;;;;;;5109379;28;13120;-74
2022/05/26 12:57:31;;;;;;;;;17.00;15.50;;;;;;;;5110538;28;12127;-74
2022/05/26 13:00:15;;;;;;;;;19.67;19.67;;;;;;;;5097566;28;13681;-75
2022/05/26 13:02:41;;;;;;;;;10.00;10.00;;;;;;;;5102723;28;11710;-75
2022/05/26 13:05:08;;;;;;;;;18.33;17.67;;;;;;;;5099637;28;11633;-75
2022/05/26 13:07:34;;;;;;;;;12.00;9.75;;;;;;;;5081080;28;13079;-75
2022/05/26 13:09:59;;;;;;;;;13.33;10.33;;;;;;;;5099484;28;21390;-74
2022/05/26 13:12:25;;;;;;;;;13.67;12.00;;;;;;;;5109149;28;21412;-74
2022/05/26 13:14:55;;;;;;;;;10.00;10.00;;;;;;;;5109851;28;10705;-75
2022/05/26 13:17:25;;;;;;;;;8.50;7.50;;;;;;;;5120154;28;10596;-74
2022/05/26 13:19:52;;;;;;;;;19.75;16.75;;;;;;;;5119600;28;22359;-73
2022/05/26 13:22:37;;;;;;;;;12.00;11.00;;;;;;;;5119571;28;23932;-74
2022/05/26 13:25:11;;;;;;;;;12.25;11.50;;;;;;;;5118551;27;11753;-78
2022/05/26 13:27:45;;;;;;;;;23.33;21.67;;;;;;;;5120532;28;8810;-86
2022/05/26 13:33:08;;;;;;;;;15.00;11.00;;;;;;;;5119289;28;22474;-78
2022/05/26 13:35:38;;;;;;;;;9.25;8.50;;;;;;;;5096092;28;22065;-75
2022/05/26 13:38:03;;;;;;;;;12.50;11.75;;;;;;;;5115924;28;22994;-74
2022/05/26 13:40:29;;;;;;;;;31.75;28.50;;;;;;;;5119206;28;23366;-77
2022/05/26 13:42:54;;;;;;;;;7.67;7.67;;;;;;;;5119645;28;13742;-76
2022/05/26 13:45:21;;;;;;;;;14.33;14.33;;;;;;;;5119327;28;22364;-76
2022/05/26 13:47:46;;;;;;;;;12.00;12.00;;;;;;;;5118805;28;22592;-76
2022/05/26 13:50:11;;;;;;;;;23.00;21.00;;;;;;;;5119533;28;11638;-76
2022/05/26 13:52:38;;;;;;;;;27.33;20.00;;;;;;;;5119851;28;10396;-79
2022/05/26 13:55:23;;;;;;;;;13.25;10.50;;;;;;;;5120234;28;11111;-74
2022/05/26 13:57:52;;;;;;;;;11.25;10.00;;;;;;;;5116660;28;13372;-75
2022/05/26 14:00:34;;;;;;;;;10.75;10.75;;;;;;;;5119022;28;11580;-75
2022/05/26 14:03:07;;;;;;;;;17.75;16.00;;;;;;;;5115391;28;11521;-75
2022/05/26 14:05:34;;;;;;;;;18.67;17.33;;;;;;;;5116057;28;11471;-75
2022/05/26 14:07:59;;;;;;;;;23.67;21.33;;;;;;;;5116854;28;11564;-75
2022/05/26 14:10:29;;;;;;;;;24.33;21.67;;;;;;;;5108468;28;10342;-75
2022/05/26 14:13:23;;;;;;;;;19.00;17.50;;;;;;;;5110199;28;12767;-76
2022/05/26 14:15:56;;;;;;;;;19.00;19.00;;;;;;;;5093878;28;13819;-74
2022/05/26 14:18:34;;;;;;;;;18.00;17.67;;;;;;;;5107319;28;10368;-75
2022/05/26 14:21:00;;;;;;;;;13.50;11.25;;;;;;;;5106746;28;12176;-75
2022/05/26 14:23:26;;;;;;;;;22.33;20.67;;;;;;;;5118557;28;11362;-77
2022/05/26 14:26:06;;;;;;;;;20.33;16.00;;;;;;;;5097128;28;16945;-75
2022/05/26 14:28:37;;;;;;;;;11.00;9.50;;;;;;;;5116421;28;12326;-77
2022/05/26 14:31:03;;;;;;;;;28.00;24.33;;;;;;;;5117374;28;22558;-77
2022/05/26 14:33:30;;;;;;;;;21.67;19.00;;;;;;;;5117741;28;22740;-78
2022/05/26 14:35:56;;;;;;;;;25.67;23.67;;;;;;;;5099158;27;13357;-77
2022/05/26 14:38:21;;;;;;;;;22.67;21.00;;;;;;;;5108760;28;13482;-77
2022/05/26 14:40:47;;;;;;;;;23.00;22.33;;;;;;;;5118205;28;11759;-80
2022/05/26 14:43:16;;;;;;;;;25.67;23.67;;;;;;;;5110194;28;11394;-78
2022/05/26 14:45:41;;;;;;;;;10.25;10.25;;;;;;;;5111825;28;11891;-78
2022/05/26 14:48:08;;;;;;;;;15.67;15.00;;;;;;;;5116044;28;84725;-78
2022/05/26 14:50:34;;;;;;;;;12.00;11.33;;;;;;;;5118793;28;11415;-78
2022/05/26 14:53:01;;;;;;;;;16.25;13.75;;;;;;;;5117921;28;11615;-79
2022/05/26 14:55:28;;;;;;;;;24.33;23.00;;;;;;;;5117118;28;10866;-77
2022/05/26 14:57:55;;;;;;;;;21.25;20.50;;;;;;;;5116711;28;13562;-82
2022/05/26 15:00:22;;;;;;;;;28.67;26.67;;;;;;;;5116568;28;12056;-81
2022/05/26 15:02:48;;;;;;;;;28.00;24.33;;;;;;;;5116725;28;11530;-79
2022/05/26 15:05:13;;;;;;;;;16.33;15.67;;;;;;;;5116777;28;10584;-82
2022/05/26 15:07:40;;;;;;;;;18.00;18.00;;;;;;;;5116915;28;13618;-82
2022/05/26 15:10:06;;;;;;;;;28.00;25.00;;;;;;;;5109124;28;11579;-81
2022/05/26 15:12:32;;;;;;;;;26.67;24.67;;;;;;;;5103956;28;10613;-82
2022/05/26 15:14:57;;;;;;;;;23.00;21.00;;;;;;;;5088361;28;11423;-79